sensor_id;sensor_type;location;lat;lon;timestamp;P1;durP1;ratioP1;P2;durP2;ratioP2
7495;SDS011;3789;47.064;15.482;2023-10-31T00:02:01;4.70;;;2.30;;
7495;SDS011;3789;47.064;15.482;2023-10-31T00:04:30;2.50;;;2.30;;
7495;SDS011;3789;47.064;15.482;2023-10-31T00:06:58;2.40;;;2.00;;
7495;SDS011;3789;47.064;15.482;2023-10-31T00:09:27;3.37;;;2.03;;
7495;SDS011;3789;47.064;15.482;2023-10-31T00:11:54;3.43;;;2.20;;
7495;SDS011;3789;47.064;15.482;2023-10-31T00:14:23;2.60;;;2.07;;
7495;SDS011;3789;47.064;15.482;2023-10-31T00:16:59;3.07;;;2.37;;
7495;SDS011;3789;47.064;15.482;2023-10-31T00:19:30;3.23;;;2.10;;
7495;SDS011;3789;47.064;15.482;2023-10-31T00:21:57;3.33;;;2.10;;
7495;SDS011;3789;47.064;15.482;2023-10-31T00:24:29;3.23;;;2.23;;
7495;SDS011;3789;47.064;15.482;2023-10-31T00:27:00;4.77;;;2.40;;
7495;SDS011;3789;47.064;15.482;2023-10-31T00:29:30;4.53;;;2.17;;
7495;SDS011;3789;47.064;15.482;2023-10-31T00:32:01;3.50;;;2.27;;
7495;SDS011;3789;47.064;15.482;2023-10-31T00:34:38;5.23;;;2.30;;
7495;SDS011;3789;47.064;15.482;2023-10-31T00:37:10;4.43;;;2.23;;
7495;SDS011;3789;47.064;15.482;2023-10-31T00:39:40;4.27;;;1.87;;
7495;SDS011;3789;47.064;15.482;2023-10-31T00:42:08;3.27;;;2.40;;
7495;SDS011;3789;47.064;15.482;2023-10-31T00:44:39;4.10;;;2.50;;
7495;SDS011;3789;47.064;15.482;2023-10-31T00:47:09;2.87;;;2.20;;
7495;SDS011;3789;47.064;15.482;2023-10-31T00:49:37;3.50;;;2.40;;
7495;SDS011;3789;47.064;15.482;2023-10-31T00:52:07;3.90;;;2.57;;
7495;SDS011;3789;47.064;15.482;2023-10-31T00:54:38;4.07;;;2.40;;
7495;SDS011;3789;47.064;15.482;2023-10-31T00:57:15;6.03;;;2.40;;
7495;SDS011;3789;47.064;15.482;2023-10-31T00:59:46;5.53;;;2.20;;
7495;SDS011;3789;47.064;15.482;2023-10-31T01:02:16;3.27;;;2.37;;
7495;SDS011;3789;47.064;15.482;2023-10-31T01:04:44;4.27;;;2.50;;
7495;SDS011;3789;47.064;15.482;2023-10-31T01:07:12;2.80;;;2.33;;
7495;SDS011;3789;47.064;15.482;2023-10-31T01:09:43;3.03;;;2.20;;
7495;SDS011;3789;47.064;15.482;2023-10-31T01:12:13;4.77;;;2.60;;
7495;SDS011;3789;47.064;15.482;2023-10-31T01:14:43;5.80;;;2.13;;
7495;SDS011;3789;47.064;15.482;2023-10-31T01:17:14;3.30;;;2.23;;
7495;SDS011;3789;47.064;15.482;2023-10-31T01:19:44;4.47;;;2.40;;
7495;SDS011;3789;47.064;15.482;2023-10-31T01:22:17;5.63;;;2.40;;
7495;SDS011;3789;47.064;15.482;2023-10-31T01:24:46;2.77;;;2.33;;
7495;SDS011;3789;47.064;15.482;2023-10-31T01:27:15;2.70;;;2.17;;
7495;SDS011;3789;47.064;15.482;2023-10-31T01:29:44;5.10;;;2.53;;
7495;SDS011;3789;47.064;15.482;2023-10-31T01:32:11;4.93;;;2.50;;
7495;SDS011;3789;47.064;15.482;2023-10-31T01:34:48;4.77;;;2.10;;
7495;SDS011;3789;47.064;15.482;2023-10-31T01:37:18;3.20;;;2.17;;
7495;SDS011;3789;47.064;15.482;2023-10-31T01:39:51;2.93;;;2.47;;
7495;SDS011;3789;47.064;15.482;2023-10-31T01:42:21;3.47;;;2.20;;
7495;SDS011;3789;47.064;15.482;2023-10-31T01:44:50;3.93;;;2.63;;
7495;SDS011;3789;47.064;15.482;2023-10-31T01:47:19;3.77;;;2.40;;
7495;SDS011;3789;47.064;15.482;2023-10-31T01:49:52;4.10;;;2.60;;
7495;SDS011;3789;47.064;15.482;2023-10-31T01:52:21;3.27;;;2.20;;
7495;SDS011;3789;47.064;15.482;2023-10-31T01:54:50;6.77;;;2.70;;
7495;SDS011;3789;47.064;15.482;2023-10-31T01:57:21;2.90;;;2.30;;
7495;SDS011;3789;47.064;15.482;2023-10-31T01:59:50;6.73;;;3.00;;
7495;SDS011;3789;47.064;15.482;2023-10-31T02:02:22;3.60;;;2.70;;
7495;SDS011;3789;47.064;15.482;2023-10-31T02:04:52;3.70;;;2.33;;
7495;SDS011;3789;47.064;15.482;2023-10-31T02:07:24;3.83;;;2.90;;
7495;SDS011;3789;47.064;15.482;2023-10-31T02:09:55;2.73;;;2.20;;
7495;SDS011;3789;47.064;15.482;2023-10-31T02:12:37;6.50;;;2.43;;
7495;SDS011;3789;47.064;15.482;2023-10-31T02:15:06;2.63;;;2.30;;
7495;SDS011;3789;47.064;15.482;2023-10-31T02:17:39;4.93;;;2.43;;
7495;SDS011;3789;47.064;15.482;2023-10-31T02:20:08;3.53;;;2.40;;
7495;SDS011;3789;47.064;15.482;2023-10-31T02:22:37;4.23;;;2.40;;
7495;SDS011;3789;47.064;15.482;2023-10-31T02:25:17;4.73;;;2.37;;
7495;SDS011;3789;47.064;15.482;2023-10-31T02:27:47;3.67;;;2.20;;
7495;SDS011;3789;47.064;15.482;2023-10-31T02:30:16;8.30;;;2.80;;
7495;SDS011;3789;47.064;15.482;2023-10-31T02:32:46;10.33;;;2.93;;
7495;SDS011;3789;47.064;15.482;2023-10-31T02:35:19;4.50;;;2.70;;
7495;SDS011;3789;47.064;15.482;2023-10-31T02:38:01;3.93;;;2.27;;
7495;SDS011;3789;47.064;15.482;2023-10-31T02:40:29;4.53;;;2.90;;
7495;SDS011;3789;47.064;15.482;2023-10-31T02:42:59;3.77;;;2.33;;
7495;SDS011;3789;47.064;15.482;2023-10-31T02:45:30;4.03;;;2.20;;
7495;SDS011;3789;47.064;15.482;2023-10-31T02:47:59;2.90;;;2.23;;
7495;SDS011;3789;47.064;15.482;2023-10-31T02:50:27;2.87;;;2.00;;
7495;SDS011;3789;47.064;15.482;2023-10-31T02:52:55;6.23;;;2.10;;
7495;SDS011;3789;47.064;15.482;2023-10-31T02:55:23;5.83;;;2.50;;
7495;SDS011;3789;47.064;15.482;2023-10-31T02:57:52;4.33;;;2.03;;
7495;SDS011;3789;47.064;15.482;2023-10-31T03:00:30;5.70;;;2.60;;
7495;SDS011;3789;47.064;15.482;2023-10-31T03:02:58;3.93;;;2.30;;
7495;SDS011;3789;47.064;15.482;2023-10-31T03:05:27;4.07;;;2.30;;
7495;SDS011;3789;47.064;15.482;2023-10-31T03:07:56;2.40;;;2.17;;
7495;SDS011;3789;47.064;15.482;2023-10-31T03:10:26;4.03;;;2.07;;
7495;SDS011;3789;47.064;15.482;2023-10-31T03:12:57;5.80;;;2.00;;
7495;SDS011;3789;47.064;15.482;2023-10-31T03:15:30;3.27;;;2.00;;
7495;SDS011;3789;47.064;15.482;2023-10-31T03:17:58;2.10;;;1.90;;
7495;SDS011;3789;47.064;15.482;2023-10-31T03:20:43;6.30;;;1.90;;
7495;SDS011;3789;47.064;15.482;2023-10-31T03:23:14;2.57;;;2.00;;
7495;SDS011;3789;47.064;15.482;2023-10-31T03:25:51;3.30;;;1.80;;
7495;SDS011;3789;47.064;15.482;2023-10-31T03:28:20;3.40;;;1.80;;
7495;SDS011;3789;47.064;15.482;2023-10-31T03:30:53;4.67;;;2.00;;
7495;SDS011;3789;47.064;15.482;2023-10-31T03:33:24;2.77;;;1.90;;
7495;SDS011;3789;47.064;15.482;2023-10-31T03:35:56;4.27;;;1.90;;
7495;SDS011;3789;47.064;15.482;2023-10-31T03:38:25;2.70;;;2.07;;
7495;SDS011;3789;47.064;15.482;2023-10-31T03:41:00;2.87;;;1.83;;
7495;SDS011;3789;47.064;15.482;2023-10-31T03:43:34;1.73;;;1.63;;
7495;SDS011;3789;47.064;15.482;2023-10-31T03:46:05;3.70;;;1.73;;
7495;SDS011;3789;47.064;15.482;2023-10-31T03:48:33;2.40;;;2.20;;
7495;SDS011;3789;47.064;15.482;2023-10-31T03:51:06;3.67;;;2.00;;
7495;SDS011;3789;47.064;15.482;2023-10-31T03:53:35;2.53;;;1.90;;
7495;SDS011;3789;47.064;15.482;2023-10-31T03:56:04;3.07;;;1.87;;
7495;SDS011;3789;47.064;15.482;2023-10-31T03:58:34;2.20;;;2.00;;
7495;SDS011;3789;47.064;15.482;2023-10-31T04:01:03;4.93;;;2.10;;
7495;SDS011;3789;47.064;15.482;2023-10-31T04:03:33;6.20;;;1.97;;
7495;SDS011;3789;47.064;15.482;2023-10-31T04:06:02;2.70;;;1.70;;
7495;SDS011;3789;47.064;15.482;2023-10-31T04:08:33;1.80;;;1.70;;
7495;SDS011;3789;47.064;15.482;2023-10-31T04:11:03;4.57;;;1.70;;
7495;SDS011;3789;47.064;15.482;2023-10-31T04:13:31;1.97;;;1.73;;
7495;SDS011;3789;47.064;15.482;2023-10-31T04:16:00;2.77;;;1.77;;
7495;SDS011;3789;47.064;15.482;2023-10-31T04:18:32;3.20;;;2.40;;
7495;SDS011;3789;47.064;15.482;2023-10-31T04:21:05;3.43;;;2.47;;
7495;SDS011;3789;47.064;15.482;2023-10-31T04:23:37;3.40;;;2.03;;
7495;SDS011;3789;47.064;15.482;2023-10-31T04:26:08;5.17;;;1.87;;
7495;SDS011;3789;47.064;15.482;2023-10-31T04:28:36;2.93;;;2.20;;
7495;SDS011;3789;47.064;15.482;2023-10-31T04:31:05;2.20;;;2.00;;
7495;SDS011;3789;47.064;15.482;2023-10-31T04:33:41;3.87;;;2.20;;
7495;SDS011;3789;47.064;15.482;2023-10-31T04:36:12;2.83;;;2.33;;
7495;SDS011;3789;47.064;15.482;2023-10-31T04:38:47;3.03;;;2.03;;
7495;SDS011;3789;47.064;15.482;2023-10-31T04:41:16;4.10;;;2.20;;
7495;SDS011;3789;47.064;15.482;2023-10-31T04:43:43;5.07;;;1.93;;
7495;SDS011;3789;47.064;15.482;2023-10-31T04:46:14;2.37;;;1.80;;
7495;SDS011;3789;47.064;15.482;2023-10-31T04:48:42;2.20;;;1.77;;
7495;SDS011;3789;47.064;15.482;2023-10-31T04:51:18;4.40;;;2.10;;
7495;SDS011;3789;47.064;15.482;2023-10-31T04:53:48;2.63;;;2.17;;
7495;SDS011;3789;47.064;15.482;2023-10-31T04:56:18;2.13;;;1.90;;
7495;SDS011;3789;47.064;15.482;2023-10-31T04:58:50;2.63;;;2.00;;
7495;SDS011;3789;47.064;15.482;2023-10-31T05:01:19;2.73;;;2.10;;
7495;SDS011;3789;47.064;15.482;2023-10-31T05:03:50;3.07;;;2.03;;
7495;SDS011;3789;47.064;15.482;2023-10-31T05:06:29;2.30;;;2.03;;
7495;SDS011;3789;47.064;15.482;2023-10-31T05:08:56;3.00;;;2.33;;
7495;SDS011;3789;47.064;15.482;2023-10-31T05:11:27;2.33;;;1.90;;
7495;SDS011;3789;47.064;15.482;2023-10-31T05:13:56;1.73;;;1.63;;
7495;SDS011;3789;47.064;15.482;2023-10-31T05:16:29;2.20;;;2.00;;
7495;SDS011;3789;47.064;15.482;2023-10-31T05:19:01;4.07;;;2.17;;
7495;SDS011;3789;47.064;15.482;2023-10-31T05:21:39;2.30;;;2.10;;
7495;SDS011;3789;47.064;15.482;2023-10-31T05:24:08;3.20;;;2.23;;
7495;SDS011;3789;47.064;15.482;2023-10-31T05:26:36;2.90;;;2.17;;
7495;SDS011;3789;47.064;15.482;2023-10-31T05:29:11;3.83;;;2.17;;
7495;SDS011;3789;47.064;15.482;2023-10-31T05:31:40;4.40;;;2.50;;
7495;SDS011;3789;47.064;15.482;2023-10-31T05:34:10;3.47;;;2.47;;
7495;SDS011;3789;47.064;15.482;2023-10-31T05:36:40;4.03;;;2.37;;
7495;SDS011;3789;47.064;15.482;2023-10-31T05:39:09;5.07;;;2.40;;
7495;SDS011;3789;47.064;15.482;2023-10-31T05:41:39;4.83;;;2.30;;
7495;SDS011;3789;47.064;15.482;2023-10-31T05:44:14;4.40;;;2.70;;
7495;SDS011;3789;47.064;15.482;2023-10-31T05:46:45;4.40;;;2.40;;
7495;SDS011;3789;47.064;15.482;2023-10-31T05:49:16;6.07;;;2.80;;
7495;SDS011;3789;47.064;15.482;2023-10-31T05:51:52;3.13;;;2.63;;
7495;SDS011;3789;47.064;15.482;2023-10-31T05:54:23;3.83;;;2.87;;
7495;SDS011;3789;47.064;15.482;2023-10-31T05:57:01;4.20;;;2.77;;
7495;SDS011;3789;47.064;15.482;2023-10-31T05:59:31;3.87;;;2.47;;
7495;SDS011;3789;47.064;15.482;2023-10-31T06:02:09;3.93;;;2.47;;
7495;SDS011;3789;47.064;15.482;2023-10-31T06:04:40;5.03;;;2.37;;
7495;SDS011;3789;47.064;15.482;2023-10-31T06:07:25;3.03;;;2.50;;
7495;SDS011;3789;47.064;15.482;2023-10-31T06:09:58;5.10;;;2.93;;
7495;SDS011;3789;47.064;15.482;2023-10-31T06:12:26;3.37;;;2.50;;
7495;SDS011;3789;47.064;15.482;2023-10-31T06:14:57;4.40;;;2.67;;
7495;SDS011;3789;47.064;15.482;2023-10-31T06:17:26;4.37;;;2.30;;
7495;SDS011;3789;47.064;15.482;2023-10-31T06:19:57;2.97;;;2.73;;
7495;SDS011;3789;47.064;15.482;2023-10-31T06:22:27;6.83;;;2.90;;
7495;SDS011;3789;47.064;15.482;2023-10-31T06:24:56;3.60;;;2.70;;
7495;SDS011;3789;47.064;15.482;2023-10-31T06:27:32;4.20;;;2.40;;
7495;SDS011;3789;47.064;15.482;2023-10-31T06:29:59;4.80;;;2.80;;
7495;SDS011;3789;47.064;15.482;2023-10-31T06:32:47;6.20;;;2.97;;
7495;SDS011;3789;47.064;15.482;2023-10-31T06:35:20;4.67;;;2.57;;
7495;SDS011;3789;47.064;15.482;2023-10-31T06:37:54;4.47;;;2.47;;
7495;SDS011;3789;47.064;15.482;2023-10-31T06:40:26;4.00;;;2.80;;
7495;SDS011;3789;47.064;15.482;2023-10-31T06:42:53;3.00;;;2.50;;
7495;SDS011;3789;47.064;15.482;2023-10-31T06:45:21;4.13;;;2.73;;
7495;SDS011;3789;47.064;15.482;2023-10-31T06:48:00;6.83;;;2.90;;
7495;SDS011;3789;47.064;15.482;2023-10-31T06:50:35;3.23;;;2.93;;
7495;SDS011;3789;47.064;15.482;2023-10-31T06:53:06;3.63;;;2.97;;
7495;SDS011;3789;47.064;15.482;2023-10-31T06:55:34;5.93;;;3.20;;
7495;SDS011;3789;47.064;15.482;2023-10-31T06:58:03;5.00;;;3.10;;
7495;SDS011;3789;47.064;15.482;2023-10-31T07:00:32;3.70;;;2.70;;
7495;SDS011;3789;47.064;15.482;2023-10-31T07:03:00;4.07;;;2.90;;
7495;SDS011;3789;47.064;15.482;2023-10-31T07:05:36;6.37;;;2.90;;
7495;SDS011;3789;47.064;15.482;2023-10-31T07:08:08;3.70;;;2.40;;
7495;SDS011;3789;47.064;15.482;2023-10-31T07:10:37;6.10;;;2.80;;
7495;SDS011;3789;47.064;15.482;2023-10-31T07:13:06;5.33;;;2.60;;
7495;SDS011;3789;47.064;15.482;2023-10-31T07:15:34;4.57;;;2.70;;
7495;SDS011;3789;47.064;15.482;2023-10-31T07:18:05;3.87;;;2.80;;
7495;SDS011;3789;47.064;15.482;2023-10-31T07:20:41;6.17;;;3.23;;
7495;SDS011;3789;47.064;15.482;2023-10-31T07:23:17;5.30;;;2.73;;
7495;SDS011;3789;47.064;15.482;2023-10-31T07:25:46;5.60;;;3.00;;
7495;SDS011;3789;47.064;15.482;2023-10-31T07:28:17;4.10;;;2.87;;
7495;SDS011;3789;47.064;15.482;2023-10-31T07:30:53;6.23;;;2.70;;
7495;SDS011;3789;47.064;15.482;2023-10-31T07:33:23;3.73;;;2.70;;
7495;SDS011;3789;47.064;15.482;2023-10-31T07:35:52;3.37;;;2.40;;
7495;SDS011;3789;47.064;15.482;2023-10-31T07:38:23;4.63;;;2.90;;
7495;SDS011;3789;47.064;15.482;2023-10-31T07:41:01;6.73;;;3.20;;
7495;SDS011;3789;47.064;15.482;2023-10-31T07:43:30;7.37;;;3.00;;
7495;SDS011;3789;47.064;15.482;2023-10-31T07:46:04;5.83;;;3.80;;
7495;SDS011;3789;47.064;15.482;2023-10-31T07:48:31;3.53;;;2.63;;
7495;SDS011;3789;47.064;15.482;2023-10-31T07:51:01;4.73;;;2.90;;
7495;SDS011;3789;47.064;15.482;2023-10-31T07:53:30;4.03;;;2.63;;
7495;SDS011;3789;47.064;15.482;2023-10-31T07:56:01;4.20;;;2.67;;
7495;SDS011;3789;47.064;15.482;2023-10-31T07:58:30;3.87;;;2.77;;
7495;SDS011;3789;47.064;15.482;2023-10-31T08:00:58;3.80;;;2.73;;
7495;SDS011;3789;47.064;15.482;2023-10-31T08:03:35;5.63;;;2.80;;
7495;SDS011;3789;47.064;15.482;2023-10-31T08:06:07;5.37;;;2.50;;
7495;SDS011;3789;47.064;15.482;2023-10-31T08:08:35;3.53;;;2.40;;
7495;SDS011;3789;47.064;15.482;2023-10-31T08:11:08;3.10;;;2.80;;
7495;SDS011;3789;47.064;15.482;2023-10-31T08:13:38;3.03;;;2.53;;
7495;SDS011;3789;47.064;15.482;2023-10-31T08:16:07;3.60;;;2.40;;
7495;SDS011;3789;47.064;15.482;2023-10-31T08:18:37;3.40;;;2.57;;
7495;SDS011;3789;47.064;15.482;2023-10-31T08:21:05;6.77;;;2.90;;
7495;SDS011;3789;47.064;15.482;2023-10-31T08:23:38;5.93;;;2.90;;
7495;SDS011;3789;47.064;15.482;2023-10-31T08:26:08;4.33;;;2.67;;
7495;SDS011;3789;47.064;15.482;2023-10-31T08:28:39;2.90;;;2.40;;
7495;SDS011;3789;47.064;15.482;2023-10-31T08:31:11;3.53;;;2.60;;
7495;SDS011;3789;47.064;15.482;2023-10-31T08:33:46;4.97;;;2.53;;
7495;SDS011;3789;47.064;15.482;2023-10-31T08:36:16;5.53;;;3.00;;
7495;SDS011;3789;47.064;15.482;2023-10-31T08:38:46;3.70;;;2.60;;
7495;SDS011;3789;47.064;15.482;2023-10-31T08:41:15;3.33;;;2.87;;
7495;SDS011;3789;47.064;15.482;2023-10-31T08:43:51;4.77;;;3.10;;
7495;SDS011;3789;47.064;15.482;2023-10-31T08:46:20;6.17;;;3.40;;
7495;SDS011;3789;47.064;15.482;2023-10-31T08:48:57;4.90;;;2.60;;
7495;SDS011;3789;47.064;15.482;2023-10-31T08:51:24;7.20;;;3.30;;
7495;SDS011;3789;47.064;15.482;2023-10-31T08:53:56;5.77;;;2.80;;
7495;SDS011;3789;47.064;15.482;2023-10-31T08:56:29;4.80;;;2.73;;
7495;SDS011;3789;47.064;15.482;2023-10-31T08:58:57;5.87;;;3.00;;
7495;SDS011;3789;47.064;15.482;2023-10-31T09:01:30;5.50;;;3.27;;
7495;SDS011;3789;47.064;15.482;2023-10-31T09:03:57;4.23;;;3.30;;
7495;SDS011;3789;47.064;15.482;2023-10-31T09:06:25;5.93;;;3.23;;
7495;SDS011;3789;47.064;15.482;2023-10-31T09:08:55;4.63;;;3.20;;
7495;SDS011;3789;47.064;15.482;2023-10-31T09:11:26;5.30;;;3.03;;
7495;SDS011;3789;47.064;15.482;2023-10-31T09:13:53;7.77;;;3.37;;
7495;SDS011;3789;47.064;15.482;2023-10-31T09:16:21;4.73;;;3.63;;
7495;SDS011;3789;47.064;15.482;2023-10-31T09:18:51;4.97;;;2.90;;
7495;SDS011;3789;47.064;15.482;2023-10-31T09:21:27;5.60;;;3.60;;
7495;SDS011;3789;47.064;15.482;2023-10-31T09:23:54;4.40;;;2.90;;
7495;SDS011;3789;47.064;15.482;2023-10-31T09:26:26;7.23;;;4.90;;
7495;SDS011;3789;47.064;15.482;2023-10-31T09:28:55;5.83;;;4.30;;
7495;SDS011;3789;47.064;15.482;2023-10-31T09:34:33;5.10;;;3.30;;
7495;SDS011;3789;47.064;15.482;2023-10-31T09:37:47;11.67;;;8.37;;
7495;SDS011;3789;47.064;15.482;2023-10-31T09:40:36;2.33;;;1.77;;
7495;SDS011;3789;47.064;15.482;2023-10-31T09:43:06;1.60;;;1.40;;
7495;SDS011;3789;47.064;15.482;2023-10-31T09:45:34;2.23;;;1.97;;
7495;SDS011;3789;47.064;15.482;2023-10-31T09:48:03;1.67;;;1.30;;
7495;SDS011;3789;47.064;15.482;2023-10-31T09:50:33;1.50;;;1.33;;
7495;SDS011;3789;47.064;15.482;2023-10-31T09:53:10;8.97;;;6.70;;
7495;SDS011;3789;47.064;15.482;2023-10-31T09:55:43;3.67;;;3.23;;
7495;SDS011;3789;47.064;15.482;2023-10-31T09:58:14;2.20;;;2.00;;
7495;SDS011;3789;47.064;15.482;2023-10-31T10:00:42;2.60;;;1.40;;
7495;SDS011;3789;47.064;15.482;2023-10-31T10:03:10;2.20;;;2.00;;
7495;SDS011;3789;47.064;15.482;2023-10-31T10:05:38;1.73;;;1.63;;
7495;SDS011;3789;47.064;15.482;2023-10-31T10:08:10;1.83;;;1.67;;
7495;SDS011;3789;47.064;15.482;2023-10-31T10:10:38;1.30;;;1.20;;
7495;SDS011;3789;47.064;15.482;2023-10-31T10:13:09;1.50;;;1.40;;
7495;SDS011;3789;47.064;15.482;2023-10-31T10:15:49;1.33;;;1.00;;
7495;SDS011;3789;47.064;15.482;2023-10-31T10:18:26;1.83;;;1.27;;
7495;SDS011;3789;47.064;15.482;2023-10-31T10:21:02;2.20;;;1.07;;
7495;SDS011;3789;47.064;15.482;2023-10-31T10:23:38;1.77;;;1.50;;
7495;SDS011;3789;47.064;15.482;2023-10-31T10:26:09;1.20;;;1.10;;
7495;SDS011;3789;47.064;15.482;2023-10-31T10:28:38;1.70;;;1.30;;
7495;SDS011;3789;47.064;15.482;2023-10-31T10:31:07;1.53;;;1.43;;
7495;SDS011;3789;47.064;15.482;2023-10-31T10:33:35;1.57;;;1.30;;
7495;SDS011;3789;47.064;15.482;2023-10-31T10:36:04;1.40;;;1.20;;
7495;SDS011;3789;47.064;15.482;2023-10-31T10:38:37;1.00;;;1.00;;
7495;SDS011;3789;47.064;15.482;2023-10-31T10:41:08;1.23;;;1.10;;
7495;SDS011;3789;47.064;15.482;2023-10-31T10:43:38;0.90;;;0.87;;
7495;SDS011;3789;47.064;15.482;2023-10-31T10:46:09;1.13;;;0.90;;
7495;SDS011;3789;47.064;15.482;2023-10-31T10:48:46;0.80;;;0.80;;
7495;SDS011;3789;47.064;15.482;2023-10-31T10:51:29;0.70;;;0.70;;
7495;SDS011;3789;47.064;15.482;2023-10-31T10:54:41;0.70;;;0.70;;
7495;SDS011;3789;47.064;15.482;2023-10-31T11:01:24;0.90;;;0.90;;
7495;SDS011;3789;47.064;15.482;2023-10-31T11:03:58;0.70;;;0.70;;
7495;SDS011;3789;47.064;15.482;2023-10-31T11:06:27;3.10;;;2.77;;
7495;SDS011;3789;47.064;15.482;2023-10-31T11:08:57;1.10;;;1.00;;
7495;SDS011;3789;47.064;15.482;2023-10-31T11:11:31;1.20;;;1.10;;
7495;SDS011;3789;47.064;15.482;2023-10-31T11:14:08;0.90;;;0.90;;
7495;SDS011;3789;47.064;15.482;2023-10-31T11:16:42;1.20;;;1.10;;
7495;SDS011;3789;47.064;15.482;2023-10-31T11:19:15;0.90;;;0.90;;
7495;SDS011;3789;47.064;15.482;2023-10-31T11:22:02;1.07;;;1.00;;
7495;SDS011;3789;47.064;15.482;2023-10-31T11:24:32;0.97;;;0.97;;
7495;SDS011;3789;47.064;15.482;2023-10-31T11:27:05;0.80;;;0.80;;
7495;SDS011;3789;47.064;15.482;2023-10-31T11:29:54;0.80;;;0.80;;
7495;SDS011;3789;47.064;15.482;2023-10-31T11:32:31;1.20;;;0.90;;
7495;SDS011;3789;47.064;15.482;2023-10-31T11:35:06;1.47;;;0.70;;
7495;SDS011;3789;47.064;15.482;2023-10-31T11:37:35;1.20;;;0.90;;
7495;SDS011;3789;47.064;15.482;2023-10-31T11:40:14;1.13;;;1.10;;
7495;SDS011;3789;47.064;15.482;2023-10-31T11:42:53;0.80;;;0.80;;
7495;SDS011;3789;47.064;15.482;2023-10-31T11:45:42;0.80;;;0.80;;
7495;SDS011;3789;47.064;15.482;2023-10-31T11:48:17;0.80;;;0.80;;
7495;SDS011;3789;47.064;15.482;2023-10-31T11:51:19;0.60;;;0.60;;
7495;SDS011;3789;47.064;15.482;2023-10-31T11:53:49;0.70;;;0.70;;
7495;SDS011;3789;47.064;15.482;2023-10-31T11:56:21;0.60;;;0.60;;
7495;SDS011;3789;47.064;15.482;2023-10-31T11:59:04;0.60;;;0.60;;
7495;SDS011;3789;47.064;15.482;2023-10-31T12:01:45;1.40;;;0.60;;
7495;SDS011;3789;47.064;15.482;2023-10-31T12:04:20;0.70;;;0.70;;
7495;SDS011;3789;47.064;15.482;2023-10-31T12:06:59;0.80;;;0.73;;
7495;SDS011;3789;47.064;15.482;2023-10-31T12:09:32;0.60;;;0.60;;
7495;SDS011;3789;47.064;15.482;2023-10-31T12:12:08;1.50;;;1.00;;
7495;SDS011;3789;47.064;15.482;2023-10-31T12:14:44;2.00;;;1.60;;
7495;SDS011;3789;47.064;15.482;2023-10-31T12:17:14;0.87;;;0.87;;
7495;SDS011;3789;47.064;15.482;2023-10-31T12:19:44;0.70;;;0.70;;
7495;SDS011;3789;47.064;15.482;2023-10-31T12:22:14;0.60;;;0.60;;
7495;SDS011;3789;47.064;15.482;2023-10-31T12:24:42;0.70;;;0.70;;
7495;SDS011;3789;47.064;15.482;2023-10-31T12:27:11;0.70;;;0.70;;
7495;SDS011;3789;47.064;15.482;2023-10-31T12:29:59;0.83;;;0.83;;
7495;SDS011;3789;47.064;15.482;2023-10-31T12:32:32;0.60;;;0.60;;
7495;SDS011;3789;47.064;15.482;2023-10-31T12:35:00;0.50;;;0.50;;
7495;SDS011;3789;47.064;15.482;2023-10-31T12:37:30;0.80;;;0.80;;
7495;SDS011;3789;47.064;15.482;2023-10-31T12:40:01;1.00;;;0.90;;
7495;SDS011;3789;47.064;15.482;2023-10-31T12:42:31;1.13;;;0.80;;
7495;SDS011;3789;47.064;15.482;2023-10-31T12:45:13;0.70;;;0.70;;
7495;SDS011;3789;47.064;15.482;2023-10-31T12:47:45;0.70;;;0.70;;
7495;SDS011;3789;47.064;15.482;2023-10-31T12:50:41;0.70;;;0.70;;
7495;SDS011;3789;47.064;15.482;2023-10-31T12:53:10;0.70;;;0.70;;
7495;SDS011;3789;47.064;15.482;2023-10-31T12:55:51;1.30;;;0.90;;
7495;SDS011;3789;47.064;15.482;2023-10-31T12:58:28;0.80;;;0.80;;
7495;SDS011;3789;47.064;15.482;2023-10-31T13:01:10;0.80;;;0.80;;
7495;SDS011;3789;47.064;15.482;2023-10-31T13:03:50;2.13;;;1.30;;
7495;SDS011;3789;47.064;15.482;2023-10-31T13:06:21;0.90;;;0.90;;
7495;SDS011;3789;47.064;15.482;2023-10-31T13:08:52;1.27;;;1.00;;
7495;SDS011;3789;47.064;15.482;2023-10-31T13:11:29;0.80;;;0.80;;
7495;SDS011;3789;47.064;15.482;2023-10-31T13:13:58;0.83;;;0.83;;
7495;SDS011;3789;47.064;15.482;2023-10-31T13:16:26;1.20;;;0.83;;
7495;SDS011;3789;47.064;15.482;2023-10-31T13:18:57;1.00;;;0.90;;
7495;SDS011;3789;47.064;15.482;2023-10-31T13:21:27;1.87;;;1.00;;
7495;SDS011;3789;47.064;15.482;2023-10-31T13:23:54;1.00;;;0.90;;
7495;SDS011;3789;47.064;15.482;2023-10-31T13:26:22;1.50;;;1.20;;
7495;SDS011;3789;47.064;15.482;2023-10-31T13:28:53;0.80;;;0.80;;
7495;SDS011;3789;47.064;15.482;2023-10-31T13:31:28;1.13;;;1.00;;
7495;SDS011;3789;47.064;15.482;2023-10-31T13:33:56;1.23;;;1.03;;
7495;SDS011;3789;47.064;15.482;2023-10-31T13:36:26;0.90;;;0.90;;
7495;SDS011;3789;47.064;15.482;2023-10-31T13:38:53;1.10;;;1.00;;
7495;SDS011;3789;47.064;15.482;2023-10-31T13:41:23;1.30;;;1.20;;
7495;SDS011;3789;47.064;15.482;2023-10-31T13:43:54;1.67;;;1.53;;
7495;SDS011;3789;47.064;15.482;2023-10-31T13:46:30;6.73;;;4.50;;
7495;SDS011;3789;47.064;15.482;2023-10-31T13:48:59;20.07;;;11.07;;
7495;SDS011;3789;47.064;15.482;2023-10-31T13:51:32;10.80;;;8.30;;
7495;SDS011;3789;47.064;15.482;2023-10-31T13:54:01;4.37;;;3.07;;
7495;SDS011;3789;47.064;15.482;2023-10-31T13:56:43;2.57;;;2.20;;
7495;SDS011;3789;47.064;15.482;2023-10-31T13:59:11;2.40;;;2.20;;
7495;SDS011;3789;47.064;15.482;2023-10-31T14:01:41;3.20;;;2.17;;
7495;SDS011;3789;47.064;15.482;2023-10-31T14:04:10;4.13;;;1.60;;
7495;SDS011;3789;47.064;15.482;2023-10-31T14:06:45;1.57;;;1.47;;
7495;SDS011;3789;47.064;15.482;2023-10-31T14:09:14;1.50;;;1.40;;
7495;SDS011;3789;47.064;15.482;2023-10-31T14:11:44;2.53;;;2.33;;
7495;SDS011;3789;47.064;15.482;2023-10-31T14:14:20;1.90;;;1.67;;
7495;SDS011;3789;47.064;15.482;2023-10-31T14:16:50;2.00;;;1.60;;
7495;SDS011;3789;47.064;15.482;2023-10-31T14:19:18;1.47;;;1.37;;
7495;SDS011;3789;47.064;15.482;2023-10-31T14:21:49;2.40;;;2.10;;
7495;SDS011;3789;47.064;15.482;2023-10-31T14:24:17;2.57;;;2.10;;
7495;SDS011;3789;47.064;15.482;2023-10-31T14:26:44;3.80;;;2.37;;
7495;SDS011;3789;47.064;15.482;2023-10-31T14:29:13;3.40;;;2.40;;
7495;SDS011;3789;47.064;15.482;2023-10-31T14:31:44;3.37;;;2.37;;
7495;SDS011;3789;47.064;15.482;2023-10-31T14:34:12;3.67;;;2.40;;
7495;SDS011;3789;47.064;15.482;2023-10-31T14:36:40;4.33;;;2.60;;
7495;SDS011;3789;47.064;15.482;2023-10-31T14:39:08;3.37;;;2.43;;
7495;SDS011;3789;47.064;15.482;2023-10-31T14:41:40;2.87;;;2.60;;
7495;SDS011;3789;47.064;15.482;2023-10-31T14:44:10;3.23;;;2.63;;
7495;SDS011;3789;47.064;15.482;2023-10-31T14:46:39;3.77;;;2.87;;
7495;SDS011;3789;47.064;15.482;2023-10-31T14:49:06;3.10;;;2.50;;
7495;SDS011;3789;47.064;15.482;2023-10-31T14:51:37;2.57;;;2.27;;
7495;SDS011;3789;47.064;15.482;2023-10-31T14:54:08;4.10;;;2.90;;
7495;SDS011;3789;47.064;15.482;2023-10-31T14:56:37;3.80;;;3.40;;
7495;SDS011;3789;47.064;15.482;2023-10-31T14:59:07;4.23;;;3.23;;
7495;SDS011;3789;47.064;15.482;2023-10-31T15:01:44;4.30;;;2.60;;
7495;SDS011;3789;47.064;15.482;2023-10-31T15:04:20;2.93;;;2.63;;
7495;SDS011;3789;47.064;15.482;2023-10-31T15:06:50;3.90;;;2.53;;
7495;SDS011;3789;47.064;15.482;2023-10-31T15:09:19;2.90;;;2.60;;
7495;SDS011;3789;47.064;15.482;2023-10-31T15:11:49;3.27;;;2.47;;
7495;SDS011;3789;47.064;15.482;2023-10-31T15:14:20;2.53;;;2.20;;
7495;SDS011;3789;47.064;15.482;2023-10-31T15:16:57;2.70;;;2.27;;
7495;SDS011;3789;47.064;15.482;2023-10-31T15:19:26;2.63;;;2.30;;
7495;SDS011;3789;47.064;15.482;2023-10-31T15:21:54;4.33;;;2.30;;
7495;SDS011;3789;47.064;15.482;2023-10-31T15:24:23;2.47;;;2.13;;
7495;SDS011;3789;47.064;15.482;2023-10-31T15:26:50;3.03;;;2.00;;
7495;SDS011;3789;47.064;15.482;2023-10-31T15:29:18;2.93;;;2.57;;
7495;SDS011;3789;47.064;15.482;2023-10-31T15:31:47;2.37;;;2.07;;
7495;SDS011;3789;47.064;15.482;2023-10-31T15:34:22;3.97;;;2.23;;
7495;SDS011;3789;47.064;15.482;2023-10-31T15:36:53;2.53;;;2.33;;